createdAt,value
2019-05-14T00:00:43.018Z,6.90
2019-05-14T00:03:15.871Z,6.90
2019-05-14T00:05:47.551Z,6.90
2019-05-14T00:08:19.193Z,6.90
2019-05-14T00:10:52.022Z,6.90
2019-05-14T00:13:23.887Z,6.80
2019-05-14T00:15:55.497Z,6.80
2019-05-14T00:18:27.145Z,6.90
2019-05-14T00:20:58.771Z,6.80
2019-05-14T00:23:32.039Z,6.80
2019-05-14T00:26:03.836Z,6.70
2019-05-14T00:28:35.541Z,6.80
2019-05-14T00:31:07.328Z,6.70
2019-05-14T00:33:39.093Z,6.70
2019-05-14T00:36:11.332Z,6.70
2019-05-14T00:38:43.126Z,6.50
2019-05-14T00:41:14.803Z,6.50
2019-05-14T00:43:46.493Z,6.50
2019-05-14T00:46:18.110Z,6.50
2019-05-14T00:48:51.536Z,6.50
2019-05-14T00:51:23.092Z,6.50
2019-05-14T00:53:54.747Z,6.50
2019-05-14T00:56:26.382Z,6.40
2019-05-14T00:58:58.095Z,6.40
2019-05-14T01:01:31.641Z,6.40
2019-05-14T01:04:03.093Z,6.40
2019-05-14T01:06:34.902Z,6.30
2019-05-14T01:09:07.525Z,6.30
2019-05-14T01:11:39.186Z,6.30
2019-05-14T01:14:12.344Z,6.30
2019-05-14T01:16:44.282Z,6.30
2019-05-14T01:19:15.911Z,6.30
2019-05-14T01:21:47.539Z,6.30
2019-05-14T01:24:21.452Z,6.30
2019-05-14T01:26:52.533Z,6.30
2019-05-14T01:29:24.228Z,6.30
2019-05-14T01:31:55.860Z,6.30
2019-05-14T01:34:27.500Z,6.20
2019-05-14T01:36:59.299Z,6.10
2019-05-14T01:39:32.040Z,6.20
2019-05-14T01:42:03.921Z,6.20
2019-05-14T01:44:35.550Z,6.10
2019-05-14T01:47:07.202Z,6.10
2019-05-14T01:49:38.836Z,6.10
2019-05-14T01:52:11.191Z,6.10
2019-05-14T01:54:43.164Z,6.10
2019-05-14T01:57:15.956Z,6.00
2019-05-14T01:59:47.636Z,6.00
2019-05-14T02:02:19.254Z,6.00
2019-05-14T02:04:51.404Z,6.00
2019-05-14T02:07:23.132Z,5.90
2019-05-14T02:09:54.798Z,5.90
2019-05-14T02:12:26.454Z,5.90
2019-05-14T02:14:58.088Z,5.80
2019-05-14T02:17:31.697Z,5.80
2019-05-14T02:20:03.310Z,5.80
2019-05-14T02:22:34.966Z,5.70
2019-05-14T02:25:08.090Z,5.70
2019-05-14T02:27:41.424Z,5.70
2019-05-14T02:30:13.524Z,5.70
2019-05-14T02:32:45.301Z,5.70
2019-05-14T02:35:20.009Z,5.80
2019-05-14T02:37:50.661Z,5.70
2019-05-14T02:40:22.487Z,5.80
2019-05-14T02:42:54.116Z,5.70
2019-05-14T02:45:25.771Z,5.70
2019-05-14T02:48:00.458Z,5.70
2019-05-14T02:50:30.950Z,5.60
2019-05-14T02:53:02.608Z,5.70
2019-05-14T02:55:34.408Z,5.60
2019-05-14T02:58:06.032Z,5.70
2019-05-14T03:00:40.692Z,5.70
2019-05-14T03:03:11.087Z,5.60
2019-05-14T03:05:42.746Z,5.60
2019-05-14T03:08:14.378Z,5.60
2019-05-14T03:10:49.813Z,5.60
2019-05-14T03:13:20.305Z,5.70
2019-05-14T03:15:52.222Z,5.70
2019-05-14T03:18:23.850Z,5.70
2019-05-14T03:20:55.513Z,5.60
2019-05-14T03:23:30.218Z,5.50
2019-05-14T03:26:01.057Z,5.50
2019-05-14T03:28:32.730Z,5.40
2019-05-14T03:31:04.629Z,5.40
2019-05-14T03:33:42.999Z,5.40
2019-05-14T03:36:17.178Z,5.40
2019-05-14T03:38:43.946Z,5.60
2019-05-14T03:41:15.802Z,5.60
2019-05-14T03:43:49.345Z,5.70
2019-05-14T03:46:38.592Z,5.70
2019-05-14T03:48:55.332Z,5.70
2019-05-14T03:51:29.592Z,5.60
2019-05-14T03:54:06.652Z,5.50
2019-05-14T03:56:34.109Z,5.50
2019-05-14T03:59:06.549Z,5.50
2019-05-14T04:01:40.270Z,5.30
2019-05-14T04:04:12.044Z,5.30
2019-05-14T04:06:45.184Z,5.40
2019-05-14T04:09:20.141Z,5.50
2019-05-14T04:11:53.965Z,5.50
2019-05-14T04:14:29.290Z,5.50
2019-05-14T04:17:09.869Z,5.40
2019-05-14T04:19:39.623Z,5.40
2019-05-14T04:22:14.677Z,5.40
2019-05-14T04:24:49.780Z,5.40
2019-05-14T04:27:23.420Z,5.50
2019-05-14T04:29:58.821Z,5.50
2019-05-14T04:32:31.957Z,5.40
2019-05-14T04:35:03.871Z,5.60
2019-05-14T04:37:36.003Z,5.70
2019-05-14T04:40:10.062Z,5.70
2019-05-14T04:42:42.346Z,5.80
2019-05-14T04:45:14.140Z,5.90
2019-05-14T04:47:49.954Z,5.90
2019-05-14T04:50:20.417Z,5.90
2019-05-14T04:52:53.515Z,6.10
2019-05-14T04:55:25.148Z,6.20
2019-05-14T04:57:59.129Z,6.20
2019-05-14T05:00:30.772Z,6.20
2019-05-14T05:03:02.532Z,6.40
2019-05-14T05:05:34.559Z,6.50
2019-05-14T05:08:09.039Z,6.50
2019-05-14T05:10:39.949Z,6.60
2019-05-14T05:13:11.839Z,6.60
2019-05-14T05:15:43.470Z,6.70
2019-05-14T05:18:18.669Z,6.80
2019-05-14T05:20:50.748Z,6.90
2019-05-14T05:23:22.889Z,7.00
2019-05-14T05:25:54.576Z,7.20
2019-05-14T05:28:28.400Z,7.30
2019-05-14T05:30:59.813Z,7.50
2019-05-14T05:33:31.568Z,7.60
2019-05-14T05:36:03.185Z,7.70
2019-05-14T05:38:34.867Z,7.80
2019-05-14T05:41:08.863Z,8.00
2019-05-14T05:43:40.096Z,8.20
2019-05-14T05:46:11.783Z,8.50
2019-05-14T05:48:44.824Z,8.70
2019-05-14T05:51:18.695Z,8.70
2019-05-14T05:53:50.038Z,8.90
2019-05-14T05:56:21.785Z,9.00
2019-05-14T05:58:53.494Z,9.10
2019-05-14T06:01:39.503Z,9.20
2019-05-14T06:03:58.789Z,9.30
2019-05-14T06:06:30.629Z,9.40
2019-05-14T06:09:02.490Z,9.50
2019-05-14T06:11:34.235Z,9.50
2019-05-14T06:14:08.141Z,9.60
2019-05-14T06:16:39.357Z,9.80
2019-05-14T06:19:11.179Z,9.90
2019-05-14T06:21:43.823Z,10.00
2019-05-14T06:24:15.515Z,9.90
2019-05-14T06:26:48.975Z,9.90
2019-05-14T06:29:21.869Z,10.00
2019-05-14T06:31:53.527Z,10.10
2019-05-14T06:34:25.301Z,10.10
2019-05-14T06:36:59.157Z,10.00
2019-05-14T06:39:30.470Z,10.00
2019-05-14T06:42:02.126Z,9.90
2019-05-14T06:44:33.847Z,9.80
2019-05-14T06:47:05.646Z,9.80
2019-05-14T06:49:38.594Z,9.90
2019-05-14T06:52:10.383Z,10.00
2019-05-14T06:54:42.055Z,10.20
2019-05-14T06:57:17.925Z,10.30
2019-05-14T06:59:51.843Z,10.30
2019-05-14T07:02:23.805Z,10.30
2019-05-14T07:04:55.667Z,10.50
2019-05-14T07:07:30.085Z,10.60
2019-05-14T07:10:00.885Z,10.70
2019-05-14T07:12:32.618Z,10.70
2019-05-14T07:15:04.451Z,10.80
2019-05-14T07:17:38.400Z,10.90
2019-05-14T07:20:11.362Z,10.90
2019-05-14T07:22:43.116Z,11.00
2019-05-14T07:25:15.201Z,11.20
2019-05-14T07:27:49.020Z,11.20
2019-05-14T07:30:21.004Z,11.40
2019-05-14T07:32:52.883Z,11.40
2019-05-14T07:35:24.574Z,11.40
2019-05-14T07:37:59.100Z,11.40
2019-05-14T07:40:30.868Z,11.40
2019-05-14T07:43:02.703Z,11.40
2019-05-14T07:45:34.576Z,11.40
2019-05-14T07:48:08.722Z,11.40
2019-05-14T07:50:40.130Z,11.50
2019-05-14T07:53:11.928Z,11.60
2019-05-14T07:55:43.691Z,11.70
2019-05-14T07:58:15.392Z,11.80
2019-05-14T08:00:49.135Z,11.90
2019-05-14T08:03:20.617Z,12.00
2019-05-14T08:05:52.327Z,12.10
2019-05-14T08:08:24.098Z,12.20
2019-05-14T08:10:56.090Z,12.00
2019-05-14T08:13:28.443Z,12.10
2019-05-14T08:16:00.367Z,12.30
2019-05-14T08:18:32.214Z,12.30
2019-05-14T08:21:04.066Z,12.40
2019-05-14T08:23:35.909Z,12.30
2019-05-14T08:26:08.036Z,12.30
2019-05-14T08:28:39.887Z,12.40
2019-05-14T08:31:11.809Z,12.50
2019-05-14T08:33:43.639Z,12.30
2019-05-14T08:36:15.511Z,12.30
2019-05-14T08:38:49.863Z,12.40
2019-05-14T08:41:20.949Z,12.60
2019-05-14T08:43:52.596Z,12.90
2019-05-14T08:46:24.288Z,13.00
2019-05-14T08:48:58.595Z,12.90
2019-05-14T08:51:30.682Z,13.00
2019-05-14T08:54:03.500Z,13.30
2019-05-14T08:56:35.313Z,13.50
2019-05-14T08:59:08.723Z,13.80
2019-05-14T09:01:56.948Z,13.70
2019-05-14T09:04:14.387Z,13.90
2019-05-14T09:06:48.766Z,14.10
2019-05-14T09:09:22.133Z,14.30
2019-05-14T09:11:53.284Z,14.40
2019-05-14T09:14:25.058Z,14.40
2019-05-14T09:16:59.901Z,14.50
2019-05-14T09:19:31.215Z,14.50
2019-05-14T09:22:03.131Z,14.30
2019-05-14T09:24:34.876Z,14.10
2019-05-14T09:27:08.403Z,14.20
2019-05-14T09:29:40.577Z,14.30
2019-05-14T09:32:12.267Z,14.30
2019-05-14T09:34:44.109Z,14.40
2019-05-14T09:37:19.017Z,14.30
2019-05-14T09:39:50.224Z,14.00
2019-05-14T09:42:22.017Z,14.10
2019-05-14T09:44:53.872Z,14.30
2019-05-14T09:47:28.105Z,14.40
2019-05-14T09:50:15.298Z,14.30
2019-05-14T09:52:32.544Z,14.30
2019-05-14T09:55:04.245Z,14.40
2019-05-14T09:57:36.085Z,14.50
2019-05-14T10:00:10.178Z,14.60
2019-05-14T10:02:42.046Z,14.70
2019-05-14T10:05:14.403Z,14.70
2019-05-14T10:07:46.144Z,14.80
2019-05-14T10:10:19.649Z,15.00
2019-05-14T10:12:56.337Z,15.40
2019-05-14T10:15:25.245Z,15.40
2019-05-14T10:18:00.361Z,15.40
2019-05-14T10:20:40.367Z,15.60
2019-05-14T10:23:04.385Z,15.50
2019-05-14T10:25:38.174Z,15.30
2019-05-14T10:28:09.844Z,14.70
2019-05-14T10:30:41.588Z,14.60
2019-05-14T10:33:14.915Z,14.60
2019-05-14T10:35:48.459Z,14.80
2019-05-14T10:38:21.407Z,14.80
2019-05-14T10:40:53.347Z,14.60
2019-05-14T10:43:25.139Z,14.60
2019-05-14T10:45:58.056Z,14.70
2019-05-14T10:48:29.917Z,14.60
2019-05-14T10:51:03.535Z,14.50
2019-05-14T10:53:35.183Z,14.40
2019-05-14T10:56:06.867Z,14.60
2019-05-14T10:58:38.628Z,14.50
2019-05-14T11:01:11.270Z,14.30
2019-05-14T11:03:43.388Z,14.10
2019-05-14T11:06:15.123Z,14.10
2019-05-14T11:08:49.043Z,14.10
2019-05-14T11:11:20.273Z,14.00
2019-05-14T11:13:51.995Z,14.10
2019-05-14T11:16:23.845Z,14.30
2019-05-14T11:18:57.497Z,14.50
2019-05-14T11:21:30.207Z,14.70
2019-05-14T11:24:01.987Z,14.70
2019-05-14T11:26:33.657Z,14.50
2019-05-14T11:29:05.386Z,14.40
2019-05-14T11:31:39.159Z,14.30
2019-05-14T11:34:10.441Z,14.40
2019-05-14T11:36:42.229Z,14.60
2019-05-14T11:39:14.137Z,14.70
2019-05-14T11:41:45.918Z,14.80
2019-05-14T11:44:18.545Z,15.00
2019-05-14T11:46:57.462Z,15.10
2019-05-14T11:49:24.276Z,15.30
2019-05-14T11:52:07.267Z,15.60
2019-05-14T11:54:30.363Z,15.60
2019-05-14T11:57:02.096Z,15.70
2019-05-14T11:59:33.921Z,15.80
2019-05-14T12:02:05.953Z,15.70
2019-05-14T12:04:39.177Z,15.70
2019-05-14T12:07:11.210Z,15.60
2019-05-14T12:09:43.205Z,15.50
2019-05-14T12:12:18.920Z,15.70
2019-05-14T12:14:50.533Z,15.70
2019-05-14T12:17:22.238Z,15.80
2019-05-14T12:19:53.877Z,16.00
2019-05-14T12:22:28.437Z,16.10
2019-05-14T12:24:59.352Z,15.90
2019-05-14T12:27:32.639Z,15.80
2019-05-14T12:30:04.590Z,15.80
2019-05-14T12:32:39.194Z,15.70
2019-05-14T12:35:10.579Z,15.60
2019-05-14T12:37:42.281Z,15.60
2019-05-14T12:40:14.215Z,15.60
2019-05-14T12:42:46.349Z,15.50
2019-05-14T12:45:19.138Z,15.60
2019-05-14T12:47:51.303Z,15.60
2019-05-14T12:50:23.273Z,15.80
2019-05-14T12:52:54.992Z,16.00
2019-05-14T12:55:28.580Z,16.20
2019-05-14T12:58:00.197Z,16.20
2019-05-14T13:00:31.961Z,16.30
2019-05-14T13:03:03.742Z,16.20
2019-05-14T13:05:35.477Z,16.10
2019-05-14T13:08:11.232Z,15.70
2019-05-14T13:10:42.459Z,15.60
2019-05-14T13:13:14.165Z,15.50
2019-05-14T13:15:48.439Z,15.50
2019-05-14T13:18:20.473Z,15.50
2019-05-14T13:20:52.179Z,15.60
2019-05-14T13:23:23.848Z,15.60
2019-05-14T13:25:55.513Z,15.80
2019-05-14T13:28:29.031Z,15.70
2019-05-14T13:31:00.856Z,15.40
2019-05-14T13:33:32.727Z,15.10
2019-05-14T13:36:04.410Z,15.20
2019-05-14T13:38:39.316Z,15.20
2019-05-14T13:41:09.667Z,15.40
2019-05-14T13:43:41.588Z,15.50
2019-05-14T13:46:15.097Z,15.60
2019-05-14T13:48:50.012Z,15.80
2019-05-14T13:51:20.556Z,15.90
2019-05-14T13:53:52.526Z,15.90
2019-05-14T13:56:24.326Z,15.90
2019-05-14T13:58:58.888Z,16.00
2019-05-14T14:01:29.848Z,15.70
2019-05-14T14:04:10.844Z,15.70
2019-05-14T14:06:35.510Z,15.70
2019-05-14T14:09:12.386Z,15.90
2019-05-14T14:11:41.765Z,15.90
2019-05-14T14:14:13.424Z,16.00
2019-05-14T14:16:48.956Z,16.10
2019-05-14T14:19:20.097Z,16.00
2019-05-14T14:21:51.964Z,16.10
2019-05-14T14:24:23.765Z,16.20
2019-05-14T14:26:55.541Z,16.10
2019-05-14T14:29:27.933Z,16.00
2019-05-14T14:31:59.671Z,16.00
2019-05-14T14:34:31.299Z,16.00
2019-05-14T14:37:02.987Z,15.70
2019-05-14T14:39:34.583Z,15.70
2019-05-14T14:42:06.346Z,15.70
2019-05-14T14:44:39.391Z,15.60
2019-05-14T14:47:11.103Z,15.60
2019-05-14T14:49:44.132Z,15.50
2019-05-14T14:52:16.062Z,15.50
2019-05-14T14:54:48.864Z,15.30
2019-05-14T14:57:20.775Z,15.20
2019-05-14T14:59:56.045Z,15.20
2019-05-14T15:02:28.584Z,15.20
2019-05-14T15:04:59.778Z,15.40
2019-05-14T15:07:31.552Z,15.60
2019-05-14T15:10:03.354Z,15.70
2019-05-14T15:12:36.092Z,15.50
2019-05-14T15:15:08.846Z,15.50
2019-05-14T15:17:41.676Z,15.60
2019-05-14T15:20:13.836Z,15.50
2019-05-14T15:22:48.657Z,15.30
2019-05-14T15:25:19.193Z,15.00
2019-05-14T15:27:50.948Z,14.90
2019-05-14T15:30:22.822Z,14.80
2019-05-14T15:32:54.685Z,14.90
2019-05-14T15:35:28.481Z,14.90
2019-05-14T15:38:00.136Z,14.90
2019-05-14T15:40:31.862Z,15.00
2019-05-14T15:43:03.609Z,14.90
2019-05-14T15:45:37.495Z,14.90
2019-05-14T15:48:09.173Z,14.70
2019-05-14T15:50:41.046Z,14.70
2019-05-14T15:53:12.882Z,14.60
2019-05-14T15:55:45.507Z,14.50
2019-05-14T15:58:21.313Z,14.60
2019-05-14T16:00:51.676Z,14.60
2019-05-14T16:03:23.528Z,14.60
2019-05-14T16:05:55.344Z,14.60
2019-05-14T16:08:29.611Z,14.60
2019-05-14T16:11:05.024Z,14.70
2019-05-14T16:13:34.052Z,14.80
2019-05-14T16:16:10.273Z,14.90
2019-05-14T16:18:39.376Z,15.00
2019-05-14T16:21:11.218Z,14.80
2019-05-14T16:23:42.861Z,14.90
2019-05-14T16:26:14.565Z,14.90
2019-05-14T16:28:46.269Z,14.90
2019-05-14T16:31:18.515Z,15.00
2019-05-14T16:33:50.409Z,15.00
2019-05-14T16:36:22.235Z,15.00
2019-05-14T16:38:54.045Z,15.10
2019-05-14T16:41:25.815Z,14.90
2019-05-14T16:43:58.735Z,14.70
2019-05-14T16:46:30.524Z,14.60
2019-05-14T16:49:02.187Z,14.50
2019-05-14T16:51:33.868Z,14.50
2019-05-14T16:54:05.656Z,14.50
2019-05-14T16:56:41.149Z,14.40
2019-05-14T16:59:10.954Z,14.40
2019-05-14T17:01:42.738Z,14.50
2019-05-14T17:04:14.568Z,14.50
2019-05-14T17:06:46.306Z,14.30
2019-05-14T17:09:19.712Z,14.30
2019-05-14T17:11:51.623Z,14.20
2019-05-14T17:14:23.545Z,14.20
2019-05-14T17:16:55.243Z,14.20
2019-05-14T17:19:29.598Z,14.10
2019-05-14T17:22:00.443Z,14.20
2019-05-14T17:24:32.131Z,14.20
2019-05-14T17:27:03.886Z,14.20
2019-05-14T17:29:35.726Z,14.20
2019-05-14T17:32:08.324Z,14.10
2019-05-14T17:34:40.143Z,14.10
2019-05-14T17:37:12.330Z,14.10
2019-05-14T17:39:44.108Z,13.90
2019-05-14T17:42:20.092Z,13.90
2019-05-14T17:44:52.033Z,13.80
2019-05-14T17:47:24.003Z,13.70
2019-05-14T17:49:56.012Z,13.70
2019-05-14T17:52:30.121Z,13.80
2019-05-14T17:55:01.732Z,13.90
2019-05-14T17:57:35.686Z,14.10
2019-05-14T18:00:09.738Z,14.00
2019-05-14T18:02:43.144Z,13.90
2019-05-14T18:05:18.621Z,14.00
2019-05-14T18:07:49.191Z,13.80
2019-05-14T18:10:21.241Z,13.70
2019-05-14T18:12:53.446Z,13.60
2019-05-14T18:15:25.648Z,13.30
2019-05-14T18:17:58.943Z,13.20
2019-05-14T18:20:33.956Z,13.00
2019-05-14T18:23:05.919Z,12.90
2019-05-14T18:25:38.940Z,12.70
2019-05-14T18:28:13.275Z,12.50
2019-05-14T18:30:45.323Z,12.40
2019-05-14T18:33:18.717Z,12.50
2019-05-14T18:35:51.038Z,12.40
2019-05-14T18:38:23.098Z,12.40
2019-05-14T18:40:55.049Z,12.30
2019-05-14T18:43:28.915Z,12.30
2019-05-14T18:46:01.041Z,12.20
2019-05-14T18:48:32.931Z,12.10
2019-05-14T18:51:04.893Z,12.00
2019-05-14T18:53:51.393Z,12.00
2019-05-14T18:56:24.499Z,11.90
2019-05-14T18:58:56.452Z,11.90
2019-05-14T19:01:29.060Z,11.80
2019-05-14T19:04:01.244Z,11.70
2019-05-14T19:06:33.339Z,11.70
2019-05-14T19:09:10.564Z,11.70
2019-05-14T19:11:43.930Z,11.60
2019-05-14T19:14:15.753Z,11.60
2019-05-14T19:17:09.289Z,11.50
2019-05-14T19:19:41.439Z,11.40
2019-05-14T19:22:13.286Z,11.30
2019-05-14T19:24:45.928Z,11.30
2019-05-14T19:27:17.900Z,11.30
2019-05-14T19:29:49.916Z,11.30
2019-05-14T19:32:21.784Z,11.20
2019-05-14T19:34:53.787Z,11.10
2019-05-14T19:37:25.712Z,11.10
2019-05-14T19:39:58.722Z,11.00
2019-05-14T19:42:30.672Z,10.90
2019-05-14T19:45:02.544Z,10.90
2019-05-14T19:47:34.479Z,10.90
2019-05-14T19:50:08.966Z,10.90
2019-05-14T19:52:41.113Z,10.80
2019-05-14T19:55:13.383Z,10.70
2019-05-14T19:57:45.334Z,10.60
2019-05-14T20:00:24.058Z,10.60
2019-05-14T20:02:58.067Z,10.50
2019-05-14T20:05:29.985Z,10.50
2019-05-14T20:08:01.816Z,10.50
2019-05-14T20:10:33.740Z,10.40
2019-05-14T20:13:05.762Z,10.40
2019-05-14T20:15:38.970Z,10.30
2019-05-14T20:18:12.060Z,10.30
2019-05-14T20:20:43.889Z,10.20
2019-05-14T20:23:18.355Z,10.10
2019-05-14T20:25:49.736Z,10.00
2019-05-14T20:28:21.721Z,10.00
2019-05-14T20:30:53.704Z,10.00
2019-05-14T20:33:26.113Z,9.90
2019-05-14T20:35:58.957Z,10.00
2019-05-14T20:38:31.009Z,10.00
2019-05-14T20:41:02.952Z,9.80
2019-05-14T20:43:35.020Z,9.80
2019-05-14T20:46:07.106Z,9.80
2019-05-14T20:48:39.297Z,9.80
2019-05-14T20:51:11.376Z,9.80
2019-05-14T20:53:43.240Z,9.70
2019-05-14T20:56:15.308Z,9.70
2019-05-14T20:58:48.170Z,9.50
2019-05-14T21:01:20.164Z,9.50
2019-05-14T21:03:52.162Z,9.50
2019-05-14T21:06:24.289Z,9.40
2019-05-14T21:08:58.317Z,9.40
2019-05-14T21:11:30.311Z,9.40
2019-05-14T21:14:02.130Z,9.40
2019-05-14T21:16:33.952Z,9.40
2019-05-14T21:19:14.808Z,9.20
2019-05-14T21:21:49.137Z,9.20
2019-05-14T21:24:21.873Z,9.20
2019-05-14T21:26:55.061Z,9.20
2019-05-14T21:29:30.315Z,9.20
2019-05-14T21:32:01.607Z,9.10
2019-05-14T21:34:33.489Z,9.10
2019-05-14T21:37:05.326Z,9.00
2019-05-14T21:39:38.277Z,9.00
2019-05-14T21:42:11.068Z,9.00
2019-05-14T21:44:43.387Z,8.90
2019-05-14T21:47:15.233Z,8.80
2019-05-14T21:49:48.375Z,8.80
2019-05-14T21:52:20.281Z,8.80
2019-05-14T21:54:51.973Z,8.80
2019-05-14T21:57:23.795Z,8.70
2019-05-14T21:59:55.621Z,8.70
2019-05-14T22:02:30.058Z,8.70
2019-05-14T22:05:01.524Z,8.70
2019-05-14T22:07:34.009Z,8.70
2019-05-14T22:10:07.326Z,8.70
2019-05-14T22:12:39.631Z,8.60
2019-05-14T22:15:13.302Z,8.50
2019-05-14T22:17:45.132Z,8.50
2019-05-14T22:20:30.736Z,8.50
2019-05-14T22:23:02.997Z,8.40
2019-05-14T22:25:35.074Z,8.50
2019-05-14T22:28:15.366Z,8.50
2019-05-14T22:30:43.352Z,8.50
2019-05-14T22:33:14.975Z,8.40
2019-05-14T22:35:48.614Z,8.40
2019-05-14T22:38:20.397Z,8.30
2019-05-14T22:40:52.256Z,8.40
2019-05-14T22:43:24.118Z,8.30
2019-05-14T22:45:55.842Z,8.30
2019-05-14T22:48:27.622Z,8.20
2019-05-14T22:50:59.347Z,8.20
2019-05-14T22:53:31.022Z,8.10
2019-05-14T22:56:02.827Z,8.10
2019-05-14T22:58:38.298Z,8.10
2019-05-14T23:01:14.823Z,8.00
2019-05-14T23:03:43.114Z,8.00
2019-05-14T23:06:14.776Z,8.00
2019-05-14T23:08:48.655Z,7.90
2019-05-14T23:11:20.053Z,7.90
2019-05-14T23:13:51.904Z,7.80
2019-05-14T23:16:36.400Z,7.80
2019-05-14T23:18:58.351Z,7.80
2019-05-14T23:21:32.344Z,7.70
2019-05-14T23:24:04.047Z,7.70
2019-05-14T23:26:35.771Z,7.70
2019-05-14T23:29:07.525Z,7.60
2019-05-14T23:31:39.225Z,7.60
2019-05-14T23:34:12.046Z,7.60
2019-05-14T23:36:43.799Z,7.60
2019-05-14T23:39:17.157Z,7.60
2019-05-14T23:41:49.354Z,7.50
2019-05-14T23:44:21.033Z,7.50
2019-05-14T23:46:53.149Z,7.50
2019-05-14T23:49:24.841Z,7.50
2019-05-14T23:51:56.779Z,7.40
2019-05-14T23:54:29.274Z,7.50
2019-05-14T23:57:01.029Z,7.40
2019-05-14T23:59:35.841Z,7.40
